Bowral, Australia
Current Conditions -  °F | °C
As of 11:00 PM on Thursday 18 Dec 2014 (Local Time) from YSNW Reporting Station
Clear Clear  
Wind Chill: 64°   Ceiling: Unl
Heat Index: 64°   Visibility: 5mi
Dew Point: 64°   Wind: 2mph
Humidity: 100%   Direction: 290°WNW
Pressure: 29.68"   Gusts: NA
Location:  34.48°S, 150.42°E
Report Text: YSNW 181200Z AUTO 29002KT 8000 // NCD 18/18 Q1005
Loading
Personal Weather Stations






























Interactive Weather Map New forecast layout! Learn more

10-Day Weather Forecast

Advertisements
Track Severe Weather on mobile